sensor_id;sensor_type;location;lat;lon;timestamp;P1;durP1;ratioP1;P2;durP2;ratioP2
817;SDS011;391;51.052;6.954;2022-12-16T00:00:47;396.45;;;128.80;;
817;SDS011;391;51.052;6.954;2022-12-16T00:02:51;397.55;;;130.13;;
817;SDS011;391;51.052;6.954;2022-12-16T00:04:55;404.85;;;134.25;;
817;SDS011;391;51.052;6.954;2022-12-16T00:06:58;403.05;;;128.60;;
817;SDS011;391;51.052;6.954;2022-12-16T00:09:02;429.98;;;148.57;;
817;SDS011;391;51.052;6.954;2022-12-16T00:11:05;394.30;;;133.10;;
817;SDS011;391;51.052;6.954;2022-12-16T00:13:09;395.30;;;131.70;;
817;SDS011;391;51.052;6.954;2022-12-16T00:15:14;411.63;;;135.82;;
817;SDS011;391;51.052;6.954;2022-12-16T00:17:17;389.50;;;128.10;;
817;SDS011;391;51.052;6.954;2022-12-16T00:19:21;403.63;;;135.30;;
817;SDS011;391;51.052;6.954;2022-12-16T00:21:25;415.27;;;140.70;;
817;SDS011;391;51.052;6.954;2022-12-16T00:23:30;385.02;;;123.65;;
817;SDS011;391;51.052;6.954;2022-12-16T00:25:35;416.10;;;142.45;;
817;SDS011;391;51.052;6.954;2022-12-16T00:27:38;403.48;;;133.32;;
817;SDS011;391;51.052;6.954;2022-12-16T00:29:42;398.88;;;127.97;;
817;SDS011;391;51.052;6.954;2022-12-16T00:31:47;393.15;;;130.70;;
817;SDS011;391;51.052;6.954;2022-12-16T00:33:50;388.55;;;126.90;;
817;SDS011;391;51.052;6.954;2022-12-16T00:35:57;393.20;;;131.77;;
817;SDS011;391;51.052;6.954;2022-12-16T00:38:00;397.67;;;131.57;;
817;SDS011;391;51.052;6.954;2022-12-16T00:40:04;413.95;;;131.02;;
817;SDS011;391;51.052;6.954;2022-12-16T00:42:09;402.92;;;131.98;;
817;SDS011;391;51.052;6.954;2022-12-16T00:44:12;413.42;;;138.30;;
817;SDS011;391;51.052;6.954;2022-12-16T00:46:15;391.50;;;131.93;;
817;SDS011;391;51.052;6.954;2022-12-16T00:48:20;390.38;;;133.02;;
817;SDS011;391;51.052;6.954;2022-12-16T00:50:24;390.75;;;129.85;;
817;SDS011;391;51.052;6.954;2022-12-16T00:52:28;402.58;;;125.32;;
817;SDS011;391;51.052;6.954;2022-12-16T00:54:31;410.10;;;139.55;;
817;SDS011;391;51.052;6.954;2022-12-16T00:56:35;384.00;;;121.47;;
817;SDS011;391;51.052;6.954;2022-12-16T00:58:38;391.65;;;127.88;;
817;SDS011;391;51.052;6.954;2022-12-16T01:00:43;403.67;;;129.63;;
817;SDS011;391;51.052;6.954;2022-12-16T01:02:47;406.08;;;135.55;;
817;SDS011;391;51.052;6.954;2022-12-16T01:04:53;387.80;;;125.50;;
817;SDS011;391;51.052;6.954;2022-12-16T01:06:56;395.63;;;125.78;;
817;SDS011;391;51.052;6.954;2022-12-16T01:08:59;410.35;;;144.35;;
817;SDS011;391;51.052;6.954;2022-12-16T01:11:03;405.20;;;134.73;;
817;SDS011;391;51.052;6.954;2022-12-16T01:13:07;395.33;;;132.02;;
817;SDS011;391;51.052;6.954;2022-12-16T01:15:10;401.63;;;129.13;;
817;SDS011;391;51.052;6.954;2022-12-16T01:17:15;393.55;;;129.25;;
817;SDS011;391;51.052;6.954;2022-12-16T01:19:18;415.15;;;141.30;;
817;SDS011;391;51.052;6.954;2022-12-16T01:21:23;414.08;;;137.18;;
817;SDS011;391;51.052;6.954;2022-12-16T01:23:27;392.02;;;131.65;;
817;SDS011;391;51.052;6.954;2022-12-16T01:25:31;393.33;;;130.63;;
817;SDS011;391;51.052;6.954;2022-12-16T01:27:34;395.83;;;133.65;;
817;SDS011;391;51.052;6.954;2022-12-16T01:29:37;396.95;;;134.35;;
817;SDS011;391;51.052;6.954;2022-12-16T01:31:41;391.35;;;130.27;;
817;SDS011;391;51.052;6.954;2022-12-16T01:33:45;385.13;;;126.20;;
817;SDS011;391;51.052;6.954;2022-12-16T01:35:48;372.90;;;120.28;;
817;SDS011;391;51.052;6.954;2022-12-16T01:37:58;407.42;;;140.75;;
817;SDS011;391;51.052;6.954;2022-12-16T01:40:01;408.48;;;132.73;;
817;SDS011;391;51.052;6.954;2022-12-16T01:42:08;392.73;;;126.28;;
817;SDS011;391;51.052;6.954;2022-12-16T01:44:14;383.05;;;127.90;;
817;SDS011;391;51.052;6.954;2022-12-16T01:46:19;395.05;;;128.80;;
817;SDS011;391;51.052;6.954;2022-12-16T01:48:30;408.20;;;136.48;;
817;SDS011;391;51.052;6.954;2022-12-16T01:50:40;382.27;;;125.28;;
817;SDS011;391;51.052;6.954;2022-12-16T01:52:45;387.00;;;127.65;;
817;SDS011;391;51.052;6.954;2022-12-16T01:54:55;401.05;;;134.27;;
817;SDS011;391;51.052;6.954;2022-12-16T01:57:03;397.23;;;135.38;;
817;SDS011;391;51.052;6.954;2022-12-16T01:59:11;391.25;;;126.05;;
817;SDS011;391;51.052;6.954;2022-12-16T02:01:18;381.25;;;126.68;;
817;SDS011;391;51.052;6.954;2022-12-16T02:03:22;395.48;;;129.77;;
817;SDS011;391;51.052;6.954;2022-12-16T02:05:26;407.13;;;133.90;;
817;SDS011;391;51.052;6.954;2022-12-16T02:07:30;383.27;;;122.88;;
817;SDS011;391;51.052;6.954;2022-12-16T02:09:34;400.73;;;140.80;;
817;SDS011;391;51.052;6.954;2022-12-16T02:11:46;387.40;;;123.68;;
817;SDS011;391;51.052;6.954;2022-12-16T02:14:04;377.58;;;124.20;;
817;SDS011;391;51.052;6.954;2022-12-16T02:16:38;380.00;;;122.63;;
817;SDS011;391;51.052;6.954;2022-12-16T02:18:50;403.88;;;137.02;;
817;SDS011;391;51.052;6.954;2022-12-16T02:21:08;397.08;;;138.85;;
817;SDS011;391;51.052;6.954;2022-12-16T02:23:54;370.80;;;124.88;;
817;SDS011;391;51.052;6.954;2022-12-16T02:26:30;380.42;;;127.95;;
817;SDS011;391;51.052;6.954;2022-12-16T02:29:02;401.48;;;150.15;;
817;SDS011;391;51.052;6.954;2022-12-16T02:31:23;373.17;;;120.82;;
817;SDS011;391;51.052;6.954;2022-12-16T02:33:41;388.60;;;126.28;;
817;SDS011;391;51.052;6.954;2022-12-16T02:35:52;384.25;;;123.93;;
817;SDS011;391;51.052;6.954;2022-12-16T02:38:06;384.15;;;125.53;;
817;SDS011;391;51.052;6.954;2022-12-16T02:40:21;371.00;;;126.65;;
817;SDS011;391;51.052;6.954;2022-12-16T02:42:29;379.25;;;130.73;;
817;SDS011;391;51.052;6.954;2022-12-16T02:44:34;377.77;;;128.52;;
817;SDS011;391;51.052;6.954;2022-12-16T02:46:52;391.75;;;136.60;;
817;SDS011;391;51.052;6.954;2022-12-16T02:49:03;390.23;;;142.70;;
817;SDS011;391;51.052;6.954;2022-12-16T02:51:07;378.10;;;128.77;;
817;SDS011;391;51.052;6.954;2022-12-16T02:53:11;389.20;;;140.00;;
817;SDS011;391;51.052;6.954;2022-12-16T02:55:15;375.90;;;126.18;;
817;SDS011;391;51.052;6.954;2022-12-16T02:57:22;382.25;;;138.05;;
817;SDS011;391;51.052;6.954;2022-12-16T02:59:50;379.30;;;129.57;;
817;SDS011;391;51.052;6.954;2022-12-16T03:02:03;366.20;;;128.80;;
817;SDS011;391;51.052;6.954;2022-12-16T03:04:15;372.05;;;127.93;;
817;SDS011;391;51.052;6.954;2022-12-16T03:06:23;385.55;;;135.35;;
817;SDS011;391;51.052;6.954;2022-12-16T03:08:29;385.92;;;132.80;;
817;SDS011;391;51.052;6.954;2022-12-16T03:10:38;388.85;;;132.25;;
817;SDS011;391;51.052;6.954;2022-12-16T03:12:46;380.50;;;132.75;;
817;SDS011;391;51.052;6.954;2022-12-16T03:14:51;396.83;;;137.82;;
817;SDS011;391;51.052;6.954;2022-12-16T03:16:56;393.30;;;141.82;;
817;SDS011;391;51.052;6.954;2022-12-16T03:19:02;376.48;;;133.70;;
817;SDS011;391;51.052;6.954;2022-12-16T03:21:10;394.42;;;140.30;;
817;SDS011;391;51.052;6.954;2022-12-16T03:23:16;373.98;;;132.07;;
817;SDS011;391;51.052;6.954;2022-12-16T03:25:24;386.05;;;139.82;;
817;SDS011;391;51.052;6.954;2022-12-16T03:27:30;372.55;;;125.03;;
817;SDS011;391;51.052;6.954;2022-12-16T03:29:40;372.55;;;121.47;;
817;SDS011;391;51.052;6.954;2022-12-16T03:31:47;388.08;;;133.43;;
817;SDS011;391;51.052;6.954;2022-12-16T03:33:55;379.58;;;129.85;;
817;SDS011;391;51.052;6.954;2022-12-16T03:36:08;375.13;;;126.40;;
817;SDS011;391;51.052;6.954;2022-12-16T03:38:15;372.15;;;130.63;;
817;SDS011;391;51.052;6.954;2022-12-16T03:40:22;377.63;;;125.15;;
817;SDS011;391;51.052;6.954;2022-12-16T03:42:29;378.75;;;130.43;;
817;SDS011;391;51.052;6.954;2022-12-16T03:44:33;381.00;;;135.73;;
817;SDS011;391;51.052;6.954;2022-12-16T03:46:37;361.27;;;123.75;;
817;SDS011;391;51.052;6.954;2022-12-16T03:48:44;364.75;;;120.95;;
817;SDS011;391;51.052;6.954;2022-12-16T03:50:49;369.30;;;124.72;;
817;SDS011;391;51.052;6.954;2022-12-16T03:52:54;358.92;;;127.68;;
817;SDS011;391;51.052;6.954;2022-12-16T03:54:57;365.60;;;126.35;;
817;SDS011;391;51.052;6.954;2022-12-16T03:57:01;371.92;;;129.23;;
817;SDS011;391;51.052;6.954;2022-12-16T03:59:04;360.08;;;129.38;;
817;SDS011;391;51.052;6.954;2022-12-16T04:01:08;367.38;;;126.60;;
817;SDS011;391;51.052;6.954;2022-12-16T04:03:12;352.90;;;121.15;;
817;SDS011;391;51.052;6.954;2022-12-16T04:05:16;359.77;;;121.40;;
817;SDS011;391;51.052;6.954;2022-12-16T04:07:20;354.40;;;121.53;;
817;SDS011;391;51.052;6.954;2022-12-16T04:09:27;368.77;;;129.00;;
817;SDS011;391;51.052;6.954;2022-12-16T04:11:30;357.08;;;121.53;;
817;SDS011;391;51.052;6.954;2022-12-16T04:13:51;367.38;;;131.30;;
817;SDS011;391;51.052;6.954;2022-12-16T04:16:13;369.83;;;132.52;;
817;SDS011;391;51.052;6.954;2022-12-16T04:18:35;358.40;;;122.40;;
817;SDS011;391;51.052;6.954;2022-12-16T04:20:57;373.90;;;134.07;;
817;SDS011;391;51.052;6.954;2022-12-16T04:23:18;368.70;;;128.02;;
817;SDS011;391;51.052;6.954;2022-12-16T04:25:41;371.92;;;142.60;;
817;SDS011;391;51.052;6.954;2022-12-16T04:27:45;350.40;;;121.18;;
817;SDS011;391;51.052;6.954;2022-12-16T04:29:48;361.38;;;128.23;;
817;SDS011;391;51.052;6.954;2022-12-16T04:32:09;366.65;;;132.02;;
817;SDS011;391;51.052;6.954;2022-12-16T04:34:13;368.85;;;131.30;;
817;SDS011;391;51.052;6.954;2022-12-16T04:36:33;362.23;;;127.55;;
817;SDS011;391;51.052;6.954;2022-12-16T04:38:54;347.02;;;124.95;;
817;SDS011;391;51.052;6.954;2022-12-16T04:41:17;390.55;;;148.88;;
817;SDS011;391;51.052;6.954;2022-12-16T04:43:38;341.15;;;118.65;;
817;SDS011;391;51.052;6.954;2022-12-16T04:45:59;347.13;;;124.10;;
817;SDS011;391;51.052;6.954;2022-12-16T04:48:21;349.88;;;123.35;;
817;SDS011;391;51.052;6.954;2022-12-16T04:50:43;348.88;;;127.43;;
817;SDS011;391;51.052;6.954;2022-12-16T04:53:05;357.80;;;130.98;;
817;SDS011;391;51.052;6.954;2022-12-16T04:55:26;340.95;;;123.68;;
817;SDS011;391;51.052;6.954;2022-12-16T04:57:49;355.65;;;126.28;;
817;SDS011;391;51.052;6.954;2022-12-16T05:00:12;352.83;;;130.27;;
817;SDS011;391;51.052;6.954;2022-12-16T05:02:33;347.63;;;124.88;;
817;SDS011;391;51.052;6.954;2022-12-16T05:04:54;357.73;;;136.43;;
817;SDS011;391;51.052;6.954;2022-12-16T05:07:16;355.30;;;131.07;;
817;SDS011;391;51.052;6.954;2022-12-16T05:09:39;345.58;;;121.18;;
817;SDS011;391;51.052;6.954;2022-12-16T05:12:01;287.83;;;99.15;;
817;SDS011;391;51.052;6.954;2022-12-16T05:14:23;363.55;;;124.07;;
817;SDS011;391;51.052;6.954;2022-12-16T05:16:44;365.15;;;133.15;;
817;SDS011;391;51.052;6.954;2022-12-16T05:19:11;363.98;;;127.22;;
817;SDS011;391;51.052;6.954;2022-12-16T05:21:32;372.15;;;128.25;;
817;SDS011;391;51.052;6.954;2022-12-16T05:23:53;374.65;;;132.63;;
817;SDS011;391;51.052;6.954;2022-12-16T05:26:15;352.42;;;121.57;;
817;SDS011;391;51.052;6.954;2022-12-16T05:28:36;344.15;;;118.38;;
817;SDS011;391;51.052;6.954;2022-12-16T05:30:58;354.05;;;117.68;;
817;SDS011;391;51.052;6.954;2022-12-16T05:33:20;337.30;;;110.97;;
817;SDS011;391;51.052;6.954;2022-12-16T05:35:41;357.17;;;121.93;;
817;SDS011;391;51.052;6.954;2022-12-16T05:38:02;356.45;;;126.30;;
817;SDS011;391;51.052;6.954;2022-12-16T05:40:23;355.35;;;122.53;;
817;SDS011;391;51.052;6.954;2022-12-16T05:42:44;348.92;;;121.32;;
817;SDS011;391;51.052;6.954;2022-12-16T05:45:07;343.42;;;118.75;;
817;SDS011;391;51.052;6.954;2022-12-16T05:47:30;373.73;;;129.35;;
817;SDS011;391;51.052;6.954;2022-12-16T05:49:51;348.27;;;116.15;;
817;SDS011;391;51.052;6.954;2022-12-16T05:52:14;363.92;;;131.77;;
817;SDS011;391;51.052;6.954;2022-12-16T05:54:35;350.33;;;120.55;;
817;SDS011;391;51.052;6.954;2022-12-16T05:56:56;356.27;;;125.10;;
817;SDS011;391;51.052;6.954;2022-12-16T05:59:17;364.10;;;132.90;;
817;SDS011;391;51.052;6.954;2022-12-16T06:01:34;352.25;;;122.00;;
817;SDS011;391;51.052;6.954;2022-12-16T06:03:57;358.67;;;126.40;;
817;SDS011;391;51.052;6.954;2022-12-16T06:06:19;362.25;;;123.10;;
817;SDS011;391;51.052;6.954;2022-12-16T06:08:40;353.77;;;120.15;;
817;SDS011;391;51.052;6.954;2022-12-16T06:11:01;353.25;;;128.35;;
817;SDS011;391;51.052;6.954;2022-12-16T06:13:22;363.30;;;124.10;;
817;SDS011;391;51.052;6.954;2022-12-16T06:15:44;380.52;;;133.88;;
817;SDS011;391;51.052;6.954;2022-12-16T06:18:10;376.83;;;129.85;;
817;SDS011;391;51.052;6.954;2022-12-16T06:20:32;352.63;;;121.20;;
817;SDS011;391;51.052;6.954;2022-12-16T06:22:54;347.48;;;123.93;;
817;SDS011;391;51.052;6.954;2022-12-16T06:25:15;354.98;;;125.38;;
817;SDS011;391;51.052;6.954;2022-12-16T06:27:41;344.20;;;120.75;;
817;SDS011;391;51.052;6.954;2022-12-16T06:30:02;357.05;;;129.70;;
817;SDS011;391;51.052;6.954;2022-12-16T06:32:23;374.17;;;133.70;;
817;SDS011;391;51.052;6.954;2022-12-16T06:34:44;369.45;;;132.73;;
817;SDS011;391;51.052;6.954;2022-12-16T06:37:06;362.38;;;130.75;;
817;SDS011;391;51.052;6.954;2022-12-16T06:39:27;362.48;;;128.77;;
817;SDS011;391;51.052;6.954;2022-12-16T06:42:03;367.77;;;131.68;;
817;SDS011;391;51.052;6.954;2022-12-16T06:44:24;350.08;;;124.03;;
817;SDS011;391;51.052;6.954;2022-12-16T06:46:45;339.60;;;121.47;;
817;SDS011;391;51.052;6.954;2022-12-16T06:49:07;351.27;;;126.55;;
817;SDS011;391;51.052;6.954;2022-12-16T06:51:28;351.40;;;119.88;;
817;SDS011;391;51.052;6.954;2022-12-16T06:53:50;340.40;;;114.93;;
817;SDS011;391;51.052;6.954;2022-12-16T06:56:11;368.95;;;128.65;;
817;SDS011;391;51.052;6.954;2022-12-16T06:58:32;351.50;;;123.22;;
817;SDS011;391;51.052;6.954;2022-12-16T07:00:54;341.02;;;116.50;;
817;SDS011;391;51.052;6.954;2022-12-16T07:03:15;353.58;;;126.40;;
817;SDS011;391;51.052;6.954;2022-12-16T07:05:37;340.00;;;119.95;;
817;SDS011;391;51.052;6.954;2022-12-16T07:07:58;363.38;;;133.70;;
817;SDS011;391;51.052;6.954;2022-12-16T07:10:20;339.55;;;116.53;;
817;SDS011;391;51.052;6.954;2022-12-16T07:12:41;341.50;;;117.63;;
817;SDS011;391;51.052;6.954;2022-12-16T07:15:02;355.33;;;127.78;;
817;SDS011;391;51.052;6.954;2022-12-16T07:17:23;347.80;;;122.13;;
817;SDS011;391;51.052;6.954;2022-12-16T07:19:45;343.42;;;122.07;;
817;SDS011;391;51.052;6.954;2022-12-16T07:22:06;330.45;;;111.97;;
817;SDS011;391;51.052;6.954;2022-12-16T07:24:23;347.23;;;123.07;;
817;SDS011;391;51.052;6.954;2022-12-16T07:27:00;339.02;;;116.07;;
817;SDS011;391;51.052;6.954;2022-12-16T07:29:21;338.02;;;119.68;;
817;SDS011;391;51.052;6.954;2022-12-16T07:31:42;334.77;;;124.90;;
817;SDS011;391;51.052;6.954;2022-12-16T07:34:03;346.77;;;124.70;;
817;SDS011;391;51.052;6.954;2022-12-16T07:36:24;354.95;;;119.45;;
817;SDS011;391;51.052;6.954;2022-12-16T07:38:44;350.55;;;126.90;;
817;SDS011;391;51.052;6.954;2022-12-16T07:41:05;358.30;;;125.03;;
817;SDS011;391;51.052;6.954;2022-12-16T07:43:28;356.85;;;122.15;;
817;SDS011;391;51.052;6.954;2022-12-16T07:45:45;343.75;;;119.05;;
817;SDS011;391;51.052;6.954;2022-12-16T07:48:07;347.65;;;118.93;;
817;SDS011;391;51.052;6.954;2022-12-16T07:50:28;357.77;;;129.50;;
817;SDS011;391;51.052;6.954;2022-12-16T07:52:52;359.08;;;128.90;;
817;SDS011;391;51.052;6.954;2022-12-16T07:55:13;336.63;;;120.00;;
817;SDS011;391;51.052;6.954;2022-12-16T07:57:35;349.25;;;119.93;;
817;SDS011;391;51.052;6.954;2022-12-16T07:59:57;355.65;;;124.85;;
817;SDS011;391;51.052;6.954;2022-12-16T08:02:18;360.48;;;128.57;;
817;SDS011;391;51.052;6.954;2022-12-16T08:04:40;347.98;;;121.40;;
817;SDS011;391;51.052;6.954;2022-12-16T08:07:01;341.05;;;117.85;;
817;SDS011;391;51.052;6.954;2022-12-16T08:09:22;346.33;;;131.65;;
817;SDS011;391;51.052;6.954;2022-12-16T08:11:43;341.45;;;120.00;;
817;SDS011;391;51.052;6.954;2022-12-16T08:14:04;344.60;;;113.70;;
817;SDS011;391;51.052;6.954;2022-12-16T08:16:26;353.52;;;122.40;;
817;SDS011;391;51.052;6.954;2022-12-16T08:18:48;360.77;;;123.68;;
817;SDS011;391;51.052;6.954;2022-12-16T08:21:12;368.58;;;132.75;;
817;SDS011;391;51.052;6.954;2022-12-16T08:23:33;338.60;;;117.93;;
817;SDS011;391;51.052;6.954;2022-12-16T08:25:55;343.60;;;122.43;;
817;SDS011;391;51.052;6.954;2022-12-16T08:28:16;346.48;;;123.28;;
817;SDS011;391;51.052;6.954;2022-12-16T08:30:38;353.83;;;124.78;;
817;SDS011;391;51.052;6.954;2022-12-16T08:33:01;339.33;;;115.90;;
817;SDS011;391;51.052;6.954;2022-12-16T08:35:22;341.95;;;118.15;;
817;SDS011;391;51.052;6.954;2022-12-16T08:37:57;359.52;;;125.25;;
817;SDS011;391;51.052;6.954;2022-12-16T08:40:18;389.13;;;139.93;;
817;SDS011;391;51.052;6.954;2022-12-16T08:42:45;358.17;;;132.02;;
817;SDS011;391;51.052;6.954;2022-12-16T08:45:13;352.27;;;122.60;;
817;SDS011;391;51.052;6.954;2022-12-16T08:47:35;333.88;;;113.20;;
817;SDS011;391;51.052;6.954;2022-12-16T08:49:58;330.08;;;117.50;;
817;SDS011;391;51.052;6.954;2022-12-16T08:52:18;349.63;;;130.05;;
817;SDS011;391;51.052;6.954;2022-12-16T08:54:51;338.98;;;120.18;;
817;SDS011;391;51.052;6.954;2022-12-16T08:57:12;359.65;;;124.40;;
817;SDS011;391;51.052;6.954;2022-12-16T08:59:33;347.92;;;131.30;;
817;SDS011;391;51.052;6.954;2022-12-16T09:01:55;351.60;;;121.90;;
817;SDS011;391;51.052;6.954;2022-12-16T09:04:16;342.00;;;113.93;;
817;SDS011;391;51.052;6.954;2022-12-16T09:06:39;359.90;;;122.35;;
817;SDS011;391;51.052;6.954;2022-12-16T09:09:00;360.77;;;126.72;;
817;SDS011;391;51.052;6.954;2022-12-16T09:11:20;356.10;;;127.85;;
817;SDS011;391;51.052;6.954;2022-12-16T09:13:41;358.85;;;124.35;;
817;SDS011;391;51.052;6.954;2022-12-16T09:16:02;355.77;;;120.03;;
817;SDS011;391;51.052;6.954;2022-12-16T09:18:24;353.13;;;127.65;;
817;SDS011;391;51.052;6.954;2022-12-16T09:20:45;340.65;;;113.22;;
817;SDS011;391;51.052;6.954;2022-12-16T09:23:07;56.63;;;37.63;;
817;SDS011;391;51.052;6.954;2022-12-16T09:25:28;141.57;;;120.00;;
817;SDS011;391;51.052;6.954;2022-12-16T09:27:49;160.95;;;125.55;;
817;SDS011;391;51.052;6.954;2022-12-16T09:30:10;147.52;;;127.82;;
817;SDS011;391;51.052;6.954;2022-12-16T09:32:31;158.30;;;114.60;;
817;SDS011;391;51.052;6.954;2022-12-16T09:34:53;186.95;;;117.18;;
817;SDS011;391;51.052;6.954;2022-12-16T09:37:14;214.95;;;131.48;;
817;SDS011;391;51.052;6.954;2022-12-16T09:39:37;398.92;;;141.80;;
817;SDS011;391;51.052;6.954;2022-12-16T09:42:00;33.05;;;19.52;;
817;SDS011;391;51.052;6.954;2022-12-16T09:44:39;38.75;;;23.60;;
817;SDS011;391;51.052;6.954;2022-12-16T09:47:11;378.73;;;134.77;;
817;SDS011;391;51.052;6.954;2022-12-16T09:49:42;32.13;;;21.30;;
817;SDS011;391;51.052;6.954;2022-12-16T09:52:07;32.00;;;20.75;;
817;SDS011;391;51.052;6.954;2022-12-16T09:54:38;37.20;;;21.90;;
817;SDS011;391;51.052;6.954;2022-12-16T09:57:05;207.30;;;112.75;;
817;SDS011;391;51.052;6.954;2022-12-16T09:59:27;267.25;;;134.90;;
817;SDS011;391;51.052;6.954;2022-12-16T10:01:54;185.82;;;121.40;;
817;SDS011;391;51.052;6.954;2022-12-16T10:04:16;112.32;;;83.78;;
817;SDS011;391;51.052;6.954;2022-12-16T10:06:39;76.43;;;53.03;;
817;SDS011;391;51.052;6.954;2022-12-16T10:09:06;58.33;;;25.77;;
817;SDS011;391;51.052;6.954;2022-12-16T10:11:37;124.72;;;111.82;;
817;SDS011;391;51.052;6.954;2022-12-16T10:14:08;90.00;;;79.63;;
817;SDS011;391;51.052;6.954;2022-12-16T10:16:36;118.75;;;105.88;;
817;SDS011;391;51.052;6.954;2022-12-16T10:19:05;156.05;;;128.00;;
817;SDS011;391;51.052;6.954;2022-12-16T10:21:32;164.68;;;129.55;;
817;SDS011;391;51.052;6.954;2022-12-16T10:24:00;113.18;;;100.03;;
817;SDS011;391;51.052;6.954;2022-12-16T10:26:33;149.07;;;122.78;;
817;SDS011;391;51.052;6.954;2022-12-16T10:29:05;170.30;;;122.28;;
817;SDS011;391;51.052;6.954;2022-12-16T10:31:32;151.35;;;118.07;;
817;SDS011;391;51.052;6.954;2022-12-16T10:33:56;58.47;;;37.15;;
817;SDS011;391;51.052;6.954;2022-12-16T10:36:17;296.25;;;140.30;;
817;SDS011;391;51.052;6.954;2022-12-16T10:38:43;350.42;;;157.25;;
817;SDS011;391;51.052;6.954;2022-12-16T10:41:06;352.40;;;146.45;;
817;SDS011;391;51.052;6.954;2022-12-16T10:43:33;374.38;;;156.35;;
817;SDS011;391;51.052;6.954;2022-12-16T10:45:59;37.00;;;22.85;;
817;SDS011;391;51.052;6.954;2022-12-16T10:48:26;283.88;;;159.95;;
817;SDS011;391;51.052;6.954;2022-12-16T10:50:58;88.50;;;53.33;;
817;SDS011;391;51.052;6.954;2022-12-16T10:53:20;225.68;;;153.30;;
817;SDS011;391;51.052;6.954;2022-12-16T10:55:50;247.00;;;150.55;;
817;SDS011;391;51.052;6.954;2022-12-16T10:58:19;145.13;;;119.95;;
817;SDS011;391;51.052;6.954;2022-12-16T11:00:47;144.43;;;128.88;;
817;SDS011;391;51.052;6.954;2022-12-16T11:03:15;283.38;;;170.00;;
817;SDS011;391;51.052;6.954;2022-12-16T11:05:39;381.10;;;157.40;;
817;SDS011;391;51.052;6.954;2022-12-16T11:08:00;397.00;;;155.88;;
817;SDS011;391;51.052;6.954;2022-12-16T11:10:30;394.25;;;158.00;;
817;SDS011;391;51.052;6.954;2022-12-16T11:12:53;347.75;;;160.45;;
817;SDS011;391;51.052;6.954;2022-12-16T11:15:19;467.40;;;164.85;;
817;SDS011;391;51.052;6.954;2022-12-16T11:17:57;463.88;;;163.00;;
817;SDS011;391;51.052;6.954;2022-12-16T11:20:23;427.30;;;158.57;;
817;SDS011;391;51.052;6.954;2022-12-16T11:22:45;108.18;;;86.28;;
817;SDS011;391;51.052;6.954;2022-12-16T11:25:12;167.88;;;141.30;;
817;SDS011;391;51.052;6.954;2022-12-16T11:27:35;128.27;;;115.80;;
817;SDS011;391;51.052;6.954;2022-12-16T11:29:57;64.18;;;30.35;;
817;SDS011;391;51.052;6.954;2022-12-16T11:32:20;212.68;;;138.60;;
817;SDS011;391;51.052;6.954;2022-12-16T11:34:58;335.05;;;168.93;;
817;SDS011;391;51.052;6.954;2022-12-16T11:37:25;221.68;;;159.02;;
817;SDS011;391;51.052;6.954;2022-12-16T11:39:48;86.88;;;39.83;;
817;SDS011;391;51.052;6.954;2022-12-16T11:42:11;188.98;;;169.77;;
817;SDS011;391;51.052;6.954;2022-12-16T11:44:39;202.48;;;172.48;;
817;SDS011;391;51.052;6.954;2022-12-16T11:47:04;285.70;;;159.40;;
817;SDS011;391;51.052;6.954;2022-12-16T11:49:35;266.55;;;140.57;;
817;SDS011;391;51.052;6.954;2022-12-16T11:51:59;257.08;;;171.80;;
817;SDS011;391;51.052;6.954;2022-12-16T11:54:39;250.85;;;154.93;;
817;SDS011;391;51.052;6.954;2022-12-16T11:57:15;341.80;;;157.23;;
817;SDS011;391;51.052;6.954;2022-12-16T11:59:39;272.67;;;187.93;;
817;SDS011;391;51.052;6.954;2022-12-16T12:02:02;383.20;;;174.40;;
817;SDS011;391;51.052;6.954;2022-12-16T12:04:31;392.67;;;195.85;;
817;SDS011;391;51.052;6.954;2022-12-16T12:06:59;371.00;;;164.07;;
817;SDS011;391;51.052;6.954;2022-12-16T12:09:47;337.98;;;167.57;;
817;SDS011;391;51.052;6.954;2022-12-16T12:12:15;363.63;;;165.68;;
817;SDS011;391;51.052;6.954;2022-12-16T12:14:42;407.13;;;177.10;;
817;SDS011;391;51.052;6.954;2022-12-16T12:17:18;395.95;;;167.63;;
817;SDS011;391;51.052;6.954;2022-12-16T12:19:50;241.18;;;159.00;;
817;SDS011;391;51.052;6.954;2022-12-16T12:22:26;298.52;;;165.30;;
817;SDS011;391;51.052;6.954;2022-12-16T12:24:56;380.92;;;173.27;;
817;SDS011;391;51.052;6.954;2022-12-16T12:27:23;197.95;;;128.23;;
817;SDS011;391;51.052;6.954;2022-12-16T12:29:52;289.65;;;168.45;;
817;SDS011;391;51.052;6.954;2022-12-16T12:32:22;180.40;;;153.73;;
817;SDS011;391;51.052;6.954;2022-12-16T12:34:50;290.67;;;180.73;;
817;SDS011;391;51.052;6.954;2022-12-16T12:37:20;228.35;;;163.60;;
817;SDS011;391;51.052;6.954;2022-12-16T12:39:47;132.40;;;112.40;;
817;SDS011;391;51.052;6.954;2022-12-16T12:42:17;221.45;;;154.20;;
817;SDS011;391;51.052;6.954;2022-12-16T12:44:54;308.23;;;174.25;;
817;SDS011;391;51.052;6.954;2022-12-16T12:47:30;364.67;;;181.90;;
817;SDS011;391;51.052;6.954;2022-12-16T12:49:54;438.73;;;167.32;;
817;SDS011;391;51.052;6.954;2022-12-16T12:52:26;408.73;;;175.25;;
817;SDS011;391;51.052;6.954;2022-12-16T12:55:09;453.88;;;185.32;;
817;SDS011;391;51.052;6.954;2022-12-16T12:57:36;493.25;;;201.43;;
817;SDS011;391;51.052;6.954;2022-12-16T13:00:02;492.13;;;197.13;;
817;SDS011;391;51.052;6.954;2022-12-16T13:02:26;505.80;;;197.93;;
817;SDS011;391;51.052;6.954;2022-12-16T13:04:53;423.15;;;178.02;;
817;SDS011;391;51.052;6.954;2022-12-16T13:07:14;425.27;;;164.75;;
817;SDS011;391;51.052;6.954;2022-12-16T13:09:36;419.88;;;172.15;;
817;SDS011;391;51.052;6.954;2022-12-16T13:14:55;101.78;;;90.80;;
817;SDS011;391;51.052;6.954;2022-12-16T13:17:22;123.72;;;110.97;;
817;SDS011;391;51.052;6.954;2022-12-16T13:19:43;149.65;;;130.43;;
817;SDS011;391;51.052;6.954;2022-12-16T13:22:04;145.43;;;130.73;;
817;SDS011;391;51.052;6.954;2022-12-16T13:24:46;160.65;;;143.13;;
817;SDS011;391;51.052;6.954;2022-12-16T13:27:10;187.65;;;144.55;;
817;SDS011;391;51.052;6.954;2022-12-16T13:29:34;193.75;;;150.07;;
817;SDS011;391;51.052;6.954;2022-12-16T13:32:00;229.27;;;154.07;;
817;SDS011;391;51.052;6.954;2022-12-16T13:34:26;233.52;;;144.30;;
817;SDS011;391;51.052;6.954;2022-12-16T13:36:51;254.50;;;134.70;;
817;SDS011;391;51.052;6.954;2022-12-16T13:39:20;225.43;;;134.40;;
817;SDS011;391;51.052;6.954;2022-12-16T13:41:46;116.97;;;85.57;;
817;SDS011;391;51.052;6.954;2022-12-16T13:44:09;212.00;;;130.10;;
817;SDS011;391;51.052;6.954;2022-12-16T13:46:42;287.52;;;151.00;;
817;SDS011;391;51.052;6.954;2022-12-16T13:52:03;316.92;;;117.68;;
817;SDS011;391;51.052;6.954;2022-12-16T13:54:38;478.23;;;160.70;;
817;SDS011;391;51.052;6.954;2022-12-16T13:57:04;427.33;;;163.05;;
817;SDS011;391;51.052;6.954;2022-12-16T13:59:27;295.90;;;152.90;;
817;SDS011;391;51.052;6.954;2022-12-16T14:01:52;461.25;;;162.55;;